sensor_id;sensor_type;location;lat;lon;timestamp;P1;durP1;ratioP1;P2;durP2;ratioP2
5801;SDS011;2927;49.366;8.530;2023-03-31T00:01:46;17.67;;;4.77;;
5801;SDS011;2927;49.366;8.530;2023-03-31T00:04:12;14.67;;;3.53;;
5801;SDS011;2927;49.366;8.530;2023-03-31T00:06:38;8.40;;;1.50;;
5801;SDS011;2927;49.366;8.530;2023-03-31T00:09:09;8.90;;;2.10;;
5801;SDS011;2927;49.366;8.530;2023-03-31T00:11:37;8.77;;;1.90;;
5801;SDS011;2927;49.366;8.530;2023-03-31T00:14:04;11.00;;;1.90;;
5801;SDS011;2927;49.366;8.530;2023-03-31T00:16:31;6.10;;;1.50;;
5801;SDS011;2927;49.366;8.530;2023-03-31T00:18:58;5.60;;;1.93;;
5801;SDS011;2927;49.366;8.530;2023-03-31T00:21:25;9.40;;;2.37;;
5801;SDS011;2927;49.366;8.530;2023-03-31T00:24:02;12.53;;;1.83;;
5801;SDS011;2927;49.366;8.530;2023-03-31T00:26:29;16.50;;;2.57;;
5801;SDS011;2927;49.366;8.530;2023-03-31T00:28:56;4.23;;;1.60;;
5801;SDS011;2927;49.366;8.530;2023-03-31T00:31:22;12.27;;;2.17;;
5801;SDS011;2927;49.366;8.530;2023-03-31T00:33:48;10.00;;;2.53;;
5801;SDS011;2927;49.366;8.530;2023-03-31T00:36:13;8.73;;;1.70;;
5801;SDS011;2927;49.366;8.530;2023-03-31T00:38:45;9.63;;;1.80;;
5801;SDS011;2927;49.366;8.530;2023-03-31T00:41:13;9.33;;;1.43;;
5801;SDS011;2927;49.366;8.530;2023-03-31T00:43:40;5.13;;;1.60;;
5801;SDS011;2927;49.366;8.530;2023-03-31T00:48:55;5.13;;;1.67;;
5801;SDS011;2927;49.366;8.530;2023-03-31T00:51:23;4.93;;;1.90;;
5801;SDS011;2927;49.366;8.530;2023-03-31T00:53:55;23.70;;;2.27;;
5801;SDS011;2927;49.366;8.530;2023-03-31T00:56:25;8.03;;;2.30;;
5801;SDS011;2927;49.366;8.530;2023-03-31T00:58:52;8.50;;;1.93;;
5801;SDS011;2927;49.366;8.530;2023-03-31T01:01:22;6.97;;;1.67;;
5801;SDS011;2927;49.366;8.530;2023-03-31T01:03:48;9.73;;;2.80;;
5801;SDS011;2927;49.366;8.530;2023-03-31T01:06:14;9.93;;;1.97;;
5801;SDS011;2927;49.366;8.530;2023-03-31T01:08:44;7.70;;;1.70;;
5801;SDS011;2927;49.366;8.530;2023-03-31T01:11:12;10.30;;;1.93;;
5801;SDS011;2927;49.366;8.530;2023-03-31T01:13:40;7.87;;;1.80;;
5801;SDS011;2927;49.366;8.530;2023-03-31T01:16:07;7.87;;;2.57;;
5801;SDS011;2927;49.366;8.530;2023-03-31T01:18:33;9.43;;;1.97;;
5801;SDS011;2927;49.366;8.530;2023-03-31T01:24:10;8.37;;;2.00;;
5801;SDS011;2927;49.366;8.530;2023-03-31T01:29:12;4.97;;;1.63;;
5801;SDS011;2927;49.366;8.530;2023-03-31T01:32:12;8.57;;;2.30;;
5801;SDS011;2927;49.366;8.530;2023-03-31T01:46:36;4.67;;;1.50;;
5801;SDS011;2927;49.366;8.530;2023-03-31T01:49:18;4.27;;;1.50;;
5801;SDS011;2927;49.366;8.530;2023-03-31T01:52:06;5.27;;;1.50;;
5801;SDS011;2927;49.366;8.530;2023-03-31T01:54:43;6.93;;;1.67;;
5801;SDS011;2927;49.366;8.530;2023-03-31T01:57:29;8.10;;;1.37;;
5801;SDS011;2927;49.366;8.530;2023-03-31T02:00:08;9.20;;;1.80;;
5801;SDS011;2927;49.366;8.530;2023-03-31T02:02:41;8.70;;;1.70;;
5801;SDS011;2927;49.366;8.530;2023-03-31T02:05:25;9.30;;;2.03;;
5801;SDS011;2927;49.366;8.530;2023-03-31T02:07:58;12.10;;;2.50;;
5801;SDS011;2927;49.366;8.530;2023-03-31T02:10:31;10.43;;;1.63;;
5801;SDS011;2927;49.366;8.530;2023-03-31T02:12:59;12.63;;;2.90;;
5801;SDS011;2927;49.366;8.530;2023-03-31T02:15:28;4.40;;;1.27;;
5801;SDS011;2927;49.366;8.530;2023-03-31T02:17:58;10.10;;;1.33;;
5801;SDS011;2927;49.366;8.530;2023-03-31T02:20:30;7.53;;;0.97;;
5801;SDS011;2927;49.366;8.530;2023-03-31T02:22:57;5.30;;;1.20;;
5801;SDS011;2927;49.366;8.530;2023-03-31T02:25:26;10.00;;;1.40;;
5801;SDS011;2927;49.366;8.530;2023-03-31T02:27:59;3.47;;;1.00;;
5801;SDS011;2927;49.366;8.530;2023-03-31T02:30:35;3.70;;;1.07;;
5801;SDS011;2927;49.366;8.530;2023-03-31T02:33:09;3.93;;;1.13;;
5801;SDS011;2927;49.366;8.530;2023-03-31T02:35:35;6.93;;;0.97;;
5801;SDS011;2927;49.366;8.530;2023-03-31T02:38:00;8.10;;;1.10;;
5801;SDS011;2927;49.366;8.530;2023-03-31T02:40:26;3.13;;;1.10;;
5801;SDS011;2927;49.366;8.530;2023-03-31T02:42:52;2.93;;;1.00;;
5801;SDS011;2927;49.366;8.530;2023-03-31T02:48:03;4.40;;;1.17;;
5801;SDS011;2927;49.366;8.530;2023-03-31T02:50:32;7.67;;;1.77;;
5801;SDS011;2927;49.366;8.530;2023-03-31T02:53:29;8.10;;;0.90;;
5801;SDS011;2927;49.366;8.530;2023-03-31T03:01:55;5.93;;;1.13;;
5801;SDS011;2927;49.366;8.530;2023-03-31T03:10:27;13.27;;;2.13;;
5801;SDS011;2927;49.366;8.530;2023-03-31T03:13:21;5.00;;;1.37;;
5801;SDS011;2927;49.366;8.530;2023-03-31T03:15:57;8.00;;;2.10;;
5801;SDS011;2927;49.366;8.530;2023-03-31T03:18:32;11.20;;;2.07;;
5801;SDS011;2927;49.366;8.530;2023-03-31T03:20:58;5.90;;;1.73;;
5801;SDS011;2927;49.366;8.530;2023-03-31T03:23:23;7.20;;;1.37;;
5801;SDS011;2927;49.366;8.530;2023-03-31T03:25:49;7.87;;;1.80;;
5801;SDS011;2927;49.366;8.530;2023-03-31T03:28:15;9.83;;;1.60;;
5801;SDS011;2927;49.366;8.530;2023-03-31T03:30:41;8.50;;;1.57;;
5801;SDS011;2927;49.366;8.530;2023-03-31T03:33:06;10.17;;;4.17;;
5801;SDS011;2927;49.366;8.530;2023-03-31T03:35:32;7.60;;;1.80;;
5801;SDS011;2927;49.366;8.530;2023-03-31T03:37:58;6.43;;;1.83;;
5801;SDS011;2927;49.366;8.530;2023-03-31T03:40:23;6.23;;;1.50;;
5801;SDS011;2927;49.366;8.530;2023-03-31T03:42:49;5.07;;;1.13;;
5801;SDS011;2927;49.366;8.530;2023-03-31T03:45:15;6.50;;;2.03;;
5801;SDS011;2927;49.366;8.530;2023-03-31T03:47:40;9.17;;;1.97;;
5801;SDS011;2927;49.366;8.530;2023-03-31T03:50:06;7.10;;;1.57;;
5801;SDS011;2927;49.366;8.530;2023-03-31T03:52:32;5.17;;;1.83;;
5801;SDS011;2927;49.366;8.530;2023-03-31T03:54:58;11.10;;;3.10;;
5801;SDS011;2927;49.366;8.530;2023-03-31T03:57:25;7.20;;;3.63;;
5801;SDS011;2927;49.366;8.530;2023-03-31T03:59:51;32.33;;;20.20;;
5801;SDS011;2927;49.366;8.530;2023-03-31T04:02:16;9.80;;;6.03;;
5801;SDS011;2927;49.366;8.530;2023-03-31T04:04:42;12.97;;;5.13;;
5801;SDS011;2927;49.366;8.530;2023-03-31T04:07:07;9.47;;;3.40;;
5801;SDS011;2927;49.366;8.530;2023-03-31T04:09:33;8.53;;;3.20;;
5801;SDS011;2927;49.366;8.530;2023-03-31T04:11:59;9.37;;;2.37;;
5801;SDS011;2927;49.366;8.530;2023-03-31T04:14:24;4.90;;;2.73;;
5801;SDS011;2927;49.366;8.530;2023-03-31T04:16:50;9.80;;;2.73;;
5801;SDS011;2927;49.366;8.530;2023-03-31T04:19:15;7.63;;;3.53;;
5801;SDS011;2927;49.366;8.530;2023-03-31T04:21:42;5.70;;;2.43;;
5801;SDS011;2927;49.366;8.530;2023-03-31T04:24:09;11.60;;;2.60;;
5801;SDS011;2927;49.366;8.530;2023-03-31T04:26:39;4.43;;;2.67;;
5801;SDS011;2927;49.366;8.530;2023-03-31T04:29:09;10.90;;;2.30;;
5801;SDS011;2927;49.366;8.530;2023-03-31T04:31:36;7.27;;;2.93;;
5801;SDS011;2927;49.366;8.530;2023-03-31T04:34:06;8.73;;;2.80;;
5801;SDS011;2927;49.366;8.530;2023-03-31T04:36:37;12.73;;;3.60;;
5801;SDS011;2927;49.366;8.530;2023-03-31T04:39:06;11.33;;;2.70;;
5801;SDS011;2927;49.366;8.530;2023-03-31T04:41:34;25.17;;;3.57;;
5801;SDS011;2927;49.366;8.530;2023-03-31T04:44:00;11.97;;;2.90;;
5801;SDS011;2927;49.366;8.530;2023-03-31T04:46:26;25.40;;;4.20;;
5801;SDS011;2927;49.366;8.530;2023-03-31T04:48:51;10.30;;;2.93;;
5801;SDS011;2927;49.366;8.530;2023-03-31T04:51:17;11.73;;;2.90;;
5801;SDS011;2927;49.366;8.530;2023-03-31T04:53:44;17.10;;;2.97;;
5801;SDS011;2927;49.366;8.530;2023-03-31T04:56:10;20.57;;;3.40;;
5801;SDS011;2927;49.366;8.530;2023-03-31T04:58:36;12.30;;;2.60;;
5801;SDS011;2927;49.366;8.530;2023-03-31T05:01:02;11.30;;;3.20;;
5801;SDS011;2927;49.366;8.530;2023-03-31T05:03:30;6.63;;;2.37;;
5801;SDS011;2927;49.366;8.530;2023-03-31T05:05:56;5.30;;;2.20;;
5801;SDS011;2927;49.366;8.530;2023-03-31T05:08:21;15.90;;;3.70;;
5801;SDS011;2927;49.366;8.530;2023-03-31T05:10:47;7.93;;;2.30;;
5801;SDS011;2927;49.366;8.530;2023-03-31T05:13:13;9.60;;;4.07;;
5801;SDS011;2927;49.366;8.530;2023-03-31T05:15:38;6.83;;;1.60;;
5801;SDS011;2927;49.366;8.530;2023-03-31T05:18:04;6.40;;;1.80;;
5801;SDS011;2927;49.366;8.530;2023-03-31T05:20:30;5.67;;;2.23;;
5801;SDS011;2927;49.366;8.530;2023-03-31T05:22:56;6.10;;;2.30;;
5801;SDS011;2927;49.366;8.530;2023-03-31T05:25:21;4.63;;;2.43;;
5801;SDS011;2927;49.366;8.530;2023-03-31T05:27:47;9.43;;;1.90;;
5801;SDS011;2927;49.366;8.530;2023-03-31T05:30:13;10.77;;;2.47;;
5801;SDS011;2927;49.366;8.530;2023-03-31T05:32:40;6.77;;;1.83;;
5801;SDS011;2927;49.366;8.530;2023-03-31T05:35:06;3.97;;;2.50;;
5801;SDS011;2927;49.366;8.530;2023-03-31T05:37:32;8.30;;;2.57;;
5801;SDS011;2927;49.366;8.530;2023-03-31T05:39:58;9.60;;;2.47;;
5801;SDS011;2927;49.366;8.530;2023-03-31T05:42:24;11.17;;;3.07;;
5801;SDS011;2927;49.366;8.530;2023-03-31T05:44:49;11.50;;;3.20;;
5801;SDS011;2927;49.366;8.530;2023-03-31T05:47:15;16.33;;;2.33;;
5801;SDS011;2927;49.366;8.530;2023-03-31T05:49:41;11.53;;;2.30;;
5801;SDS011;2927;49.366;8.530;2023-03-31T05:52:06;5.10;;;2.27;;
5801;SDS011;2927;49.366;8.530;2023-03-31T05:54:33;7.90;;;3.50;;
5801;SDS011;2927;49.366;8.530;2023-03-31T05:56:58;14.83;;;2.70;;
5801;SDS011;2927;49.366;8.530;2023-03-31T05:59:24;5.73;;;2.43;;
5801;SDS011;2927;49.366;8.530;2023-03-31T06:01:50;12.20;;;2.33;;
5801;SDS011;2927;49.366;8.530;2023-03-31T06:04:15;5.20;;;2.40;;
5801;SDS011;2927;49.366;8.530;2023-03-31T06:06:41;4.00;;;2.23;;
5801;SDS011;2927;49.366;8.530;2023-03-31T06:09:08;13.40;;;3.30;;
5801;SDS011;2927;49.366;8.530;2023-03-31T06:11:36;11.57;;;2.77;;
5801;SDS011;2927;49.366;8.530;2023-03-31T06:14:01;15.23;;;3.20;;
5801;SDS011;2927;49.366;8.530;2023-03-31T06:16:28;9.17;;;2.97;;
5801;SDS011;2927;49.366;8.530;2023-03-31T06:18:53;9.27;;;2.70;;
5801;SDS011;2927;49.366;8.530;2023-03-31T06:21:20;12.93;;;3.10;;
5801;SDS011;2927;49.366;8.530;2023-03-31T06:23:46;12.70;;;3.97;;
5801;SDS011;2927;49.366;8.530;2023-03-31T06:26:16;15.00;;;3.50;;
5801;SDS011;2927;49.366;8.530;2023-03-31T06:28:43;9.27;;;2.93;;
5801;SDS011;2927;49.366;8.530;2023-03-31T06:31:11;11.60;;;3.60;;
5801;SDS011;2927;49.366;8.530;2023-03-31T06:33:38;9.50;;;3.30;;
5801;SDS011;2927;49.366;8.530;2023-03-31T06:36:05;11.17;;;4.00;;
5801;SDS011;2927;49.366;8.530;2023-03-31T06:38:31;10.30;;;3.20;;
5801;SDS011;2927;49.366;8.530;2023-03-31T06:40:58;11.67;;;4.10;;
5801;SDS011;2927;49.366;8.530;2023-03-31T06:43:23;12.63;;;5.50;;
5801;SDS011;2927;49.366;8.530;2023-03-31T06:45:51;18.07;;;4.90;;
5801;SDS011;2927;49.366;8.530;2023-03-31T06:48:17;9.13;;;4.23;;
5801;SDS011;2927;49.366;8.530;2023-03-31T06:50:42;11.20;;;4.30;;
5801;SDS011;2927;49.366;8.530;2023-03-31T06:53:08;12.27;;;4.33;;
5801;SDS011;2927;49.366;8.530;2023-03-31T06:55:34;17.37;;;4.73;;
5801;SDS011;2927;49.366;8.530;2023-03-31T06:58:00;12.30;;;5.07;;
5801;SDS011;2927;49.366;8.530;2023-03-31T07:00:26;8.83;;;4.03;;
5801;SDS011;2927;49.366;8.530;2023-03-31T07:02:52;9.20;;;4.80;;
5801;SDS011;2927;49.366;8.530;2023-03-31T07:05:18;22.60;;;5.23;;
5801;SDS011;2927;49.366;8.530;2023-03-31T07:07:50;15.40;;;4.90;;
5801;SDS011;2927;49.366;8.530;2023-03-31T07:10:17;12.33;;;4.50;;
5801;SDS011;2927;49.366;8.530;2023-03-31T07:12:42;12.20;;;4.53;;
5801;SDS011;2927;49.366;8.530;2023-03-31T07:15:08;13.93;;;4.80;;
5801;SDS011;2927;49.366;8.530;2023-03-31T07:17:34;13.43;;;5.03;;
5801;SDS011;2927;49.366;8.530;2023-03-31T07:20:01;11.33;;;4.90;;
5801;SDS011;2927;49.366;8.530;2023-03-31T07:22:34;12.93;;;5.73;;
5801;SDS011;2927;49.366;8.530;2023-03-31T07:25:00;14.07;;;5.57;;
5801;SDS011;2927;49.366;8.530;2023-03-31T07:27:25;16.73;;;5.40;;
5801;SDS011;2927;49.366;8.530;2023-03-31T07:29:51;13.60;;;5.73;;
5801;SDS011;2927;49.366;8.530;2023-03-31T07:32:16;13.17;;;6.53;;
5801;SDS011;2927;49.366;8.530;2023-03-31T07:34:42;12.50;;;5.90;;
5801;SDS011;2927;49.366;8.530;2023-03-31T07:37:08;8.30;;;5.30;;
5801;SDS011;2927;49.366;8.530;2023-03-31T07:39:34;9.87;;;5.37;;
5801;SDS011;2927;49.366;8.530;2023-03-31T07:42:00;12.67;;;6.10;;
5801;SDS011;2927;49.366;8.530;2023-03-31T07:44:26;13.77;;;4.80;;
5801;SDS011;2927;49.366;8.530;2023-03-31T07:46:51;8.90;;;4.77;;
5801;SDS011;2927;49.366;8.530;2023-03-31T07:49:17;8.07;;;5.03;;
5801;SDS011;2927;49.366;8.530;2023-03-31T07:51:43;15.47;;;5.37;;
5801;SDS011;2927;49.366;8.530;2023-03-31T07:54:08;5.77;;;3.43;;
5801;SDS011;2927;49.366;8.530;2023-03-31T07:56:34;14.63;;;4.30;;
5801;SDS011;2927;49.366;8.530;2023-03-31T07:58:59;10.20;;;3.53;;
5801;SDS011;2927;49.366;8.530;2023-03-31T08:01:25;10.23;;;4.13;;
5801;SDS011;2927;49.366;8.530;2023-03-31T08:03:52;9.50;;;4.03;;
5801;SDS011;2927;49.366;8.530;2023-03-31T08:06:20;11.00;;;4.00;;
5801;SDS011;2927;49.366;8.530;2023-03-31T08:08:47;8.87;;;3.80;;
5801;SDS011;2927;49.366;8.530;2023-03-31T08:11:14;11.10;;;4.60;;
5801;SDS011;2927;49.366;8.530;2023-03-31T08:13:40;7.83;;;4.30;;
5801;SDS011;2927;49.366;8.530;2023-03-31T08:16:05;8.67;;;4.57;;
5801;SDS011;2927;49.366;8.530;2023-03-31T08:18:31;8.07;;;4.50;;
5801;SDS011;2927;49.366;8.530;2023-03-31T08:20:56;10.43;;;4.40;;
5801;SDS011;2927;49.366;8.530;2023-03-31T08:23:22;10.80;;;4.17;;
5801;SDS011;2927;49.366;8.530;2023-03-31T08:25:47;9.13;;;4.37;;
5801;SDS011;2927;49.366;8.530;2023-03-31T08:28:13;10.33;;;4.40;;
5801;SDS011;2927;49.366;8.530;2023-03-31T08:30:39;10.10;;;3.67;;
5801;SDS011;2927;49.366;8.530;2023-03-31T08:33:05;5.73;;;3.90;;
5801;SDS011;2927;49.366;8.530;2023-03-31T08:35:32;4.77;;;3.20;;
5801;SDS011;2927;49.366;8.530;2023-03-31T08:37:58;10.73;;;3.70;;
5801;SDS011;2927;49.366;8.530;2023-03-31T08:40:25;11.37;;;3.10;;
5801;SDS011;2927;49.366;8.530;2023-03-31T08:43:05;13.90;;;2.90;;
5801;SDS011;2927;49.366;8.530;2023-03-31T08:45:38;6.23;;;2.87;;
5801;SDS011;2927;49.366;8.530;2023-03-31T08:48:50;3.13;;;2.50;;
5801;SDS011;2927;49.366;8.530;2023-03-31T08:50:57;3.63;;;2.40;;
5801;SDS011;2927;49.366;8.530;2023-03-31T08:56:31;4.40;;;2.20;;
5801;SDS011;2927;49.366;8.530;2023-03-31T08:59:01;7.20;;;1.83;;
5801;SDS011;2927;49.366;8.530;2023-03-31T09:04:18;10.87;;;2.30;;
5801;SDS011;2927;49.366;8.530;2023-03-31T09:09:30;11.10;;;2.57;;
5801;SDS011;2927;49.366;8.530;2023-03-31T09:15:09;5.67;;;2.17;;
5801;SDS011;2927;49.366;8.530;2023-03-31T09:17:39;6.00;;;2.00;;
5801;SDS011;2927;49.366;8.530;2023-03-31T09:22:38;8.73;;;2.60;;
5801;SDS011;2927;49.366;8.530;2023-03-31T09:25:19;11.57;;;2.10;;
5801;SDS011;2927;49.366;8.530;2023-03-31T09:27:55;10.70;;;1.57;;
5801;SDS011;2927;49.366;8.530;2023-03-31T09:30:25;9.97;;;2.20;;
5801;SDS011;2927;49.366;8.530;2023-03-31T09:35:44;4.83;;;1.93;;
5801;SDS011;2927;49.366;8.530;2023-03-31T09:38:10;5.20;;;1.30;;
5801;SDS011;2927;49.366;8.530;2023-03-31T09:40:37;6.97;;;2.13;;
5801;SDS011;2927;49.366;8.530;2023-03-31T09:43:03;5.90;;;2.97;;
5801;SDS011;2927;49.366;8.530;2023-03-31T09:45:32;4.30;;;1.43;;
5801;SDS011;2927;49.366;8.530;2023-03-31T09:48:11;7.83;;;2.13;;
5801;SDS011;2927;49.366;8.530;2023-03-31T09:50:45;7.00;;;1.80;;
5801;SDS011;2927;49.366;8.530;2023-03-31T09:53:31;7.17;;;2.13;;
5801;SDS011;2927;49.366;8.530;2023-03-31T09:56:02;6.37;;;1.80;;
5801;SDS011;2927;49.366;8.530;2023-03-31T09:58:30;7.53;;;1.60;;
5801;SDS011;2927;49.366;8.530;2023-03-31T10:01:00;5.50;;;1.47;;
5801;SDS011;2927;49.366;8.530;2023-03-31T10:03:28;11.10;;;2.00;;
5801;SDS011;2927;49.366;8.530;2023-03-31T10:06:00;8.30;;;1.60;;
5801;SDS011;2927;49.366;8.530;2023-03-31T10:11:29;12.70;;;2.57;;
5801;SDS011;2927;49.366;8.530;2023-03-31T10:18:53;12.63;;;2.33;;
5801;SDS011;2927;49.366;8.530;2023-03-31T10:21:23;16.70;;;2.03;;
5801;SDS011;2927;49.366;8.530;2023-03-31T10:23:50;7.60;;;2.67;;
5801;SDS011;2927;49.366;8.530;2023-03-31T10:26:20;14.87;;;2.00;;
5801;SDS011;2927;49.366;8.530;2023-03-31T10:28:50;14.27;;;2.37;;
5801;SDS011;2927;49.366;8.530;2023-03-31T10:31:17;9.70;;;1.90;;
5801;SDS011;2927;49.366;8.530;2023-03-31T10:34:00;12.27;;;1.90;;
5801;SDS011;2927;49.366;8.530;2023-03-31T10:36:33;9.80;;;2.00;;
5801;SDS011;2927;49.366;8.530;2023-03-31T10:39:04;5.70;;;1.47;;
5801;SDS011;2927;49.366;8.530;2023-03-31T10:41:31;4.87;;;1.80;;
5801;SDS011;2927;49.366;8.530;2023-03-31T10:43:58;8.87;;;2.00;;
5801;SDS011;2927;49.366;8.530;2023-03-31T10:46:45;11.52;;;1.90;;
5801;SDS011;2927;49.366;8.530;2023-03-31T10:49:13;6.00;;;1.20;;
5801;SDS011;2927;49.366;8.530;2023-03-31T10:51:48;4.63;;;1.17;;
5801;SDS011;2927;49.366;8.530;2023-03-31T10:54:18;8.27;;;1.17;;
5801;SDS011;2927;49.366;8.530;2023-03-31T10:56:51;4.10;;;0.70;;
5801;SDS011;2927;49.366;8.530;2023-03-31T11:15:49;2.10;;;0.70;;
5801;SDS011;2927;49.366;8.530;2023-03-31T11:18:56;7.10;;;0.57;;
5801;SDS011;2927;49.366;8.530;2023-03-31T11:26:59;1.73;;;0.90;;
5801;SDS011;2927;49.366;8.530;2023-03-31T11:40:33;4.20;;;1.03;;
5801;SDS011;2927;49.366;8.530;2023-03-31T11:43:14;6.70;;;1.40;;
5801;SDS011;2927;49.366;8.530;2023-03-31T11:45:59;6.17;;;1.13;;
5801;SDS011;2927;49.366;8.530;2023-03-31T11:51:03;5.20;;;1.20;;
5801;SDS011;2927;49.366;8.530;2023-03-31T11:53:36;9.27;;;1.03;;
5801;SDS011;2927;49.366;8.530;2023-03-31T11:56:04;6.23;;;1.37;;
5801;SDS011;2927;49.366;8.530;2023-03-31T11:58:43;11.90;;;1.53;;
5801;SDS011;2927;49.366;8.530;2023-03-31T12:01:14;6.40;;;1.40;;
5801;SDS011;2927;49.366;8.530;2023-03-31T12:06:29;7.80;;;1.40;;
5801;SDS011;2927;49.366;8.530;2023-03-31T12:11:28;9.60;;;1.37;;
5801;SDS011;2927;49.366;8.530;2023-03-31T12:17:03;6.20;;;1.10;;
5801;SDS011;2927;49.366;8.530;2023-03-31T12:19:39;3.83;;;1.10;;
5801;SDS011;2927;49.366;8.530;2023-03-31T12:22:25;2.47;;;0.80;;
5801;SDS011;2927;49.366;8.530;2023-03-31T12:24:59;11.07;;;1.23;;
5801;SDS011;2927;49.366;8.530;2023-03-31T12:27:29;2.80;;;1.10;;
5801;SDS011;2927;49.366;8.530;2023-03-31T12:30:16;4.43;;;1.97;;
5801;SDS011;2927;49.366;8.530;2023-03-31T12:32:46;9.43;;;0.90;;
5801;SDS011;2927;49.366;8.530;2023-03-31T12:35:28;5.60;;;0.80;;
5801;SDS011;2927;49.366;8.530;2023-03-31T12:38:28;3.73;;;0.87;;
5801;SDS011;2927;49.366;8.530;2023-03-31T12:41:37;4.17;;;1.23;;
5801;SDS011;2927;49.366;8.530;2023-03-31T12:44:14;1.50;;;0.90;;
5801;SDS011;2927;49.366;8.530;2023-03-31T12:46:58;3.70;;;0.70;;
5801;SDS011;2927;49.366;8.530;2023-03-31T12:49:46;1.80;;;0.60;;
5801;SDS011;2927;49.366;8.530;2023-03-31T12:52:27;2.93;;;0.97;;
5801;SDS011;2927;49.366;8.530;2023-03-31T12:55:10;2.10;;;0.60;;
5801;SDS011;2927;49.366;8.530;2023-03-31T13:11:21;2.70;;;0.80;;
5801;SDS011;2927;49.366;8.530;2023-03-31T13:13:57;5.30;;;1.50;;
5801;SDS011;2927;49.366;8.530;2023-03-31T13:16:41;2.80;;;1.20;;
5801;SDS011;2927;49.366;8.530;2023-03-31T13:19:08;5.00;;;1.20;;
5801;SDS011;2927;49.366;8.530;2023-03-31T13:21:55;3.03;;;0.63;;
5801;SDS011;2927;49.366;8.530;2023-03-31T13:24:22;14.47;;;1.53;;
5801;SDS011;2927;49.366;8.530;2023-03-31T13:26:50;2.10;;;0.93;;
5801;SDS011;2927;49.366;8.530;2023-03-31T13:34:30;4.70;;;1.00;;
5801;SDS011;2927;49.366;8.530;2023-03-31T13:50:56;3.77;;;0.83;;
5801;SDS011;2927;49.366;8.530;2023-03-31T13:56:27;3.20;;;0.60;;
5801;SDS011;2927;49.366;8.530;2023-03-31T13:59:13;5.70;;;1.77;;
5801;SDS011;2927;49.366;8.530;2023-03-31T14:04:55;5.17;;;1.00;;
5801;SDS011;2927;49.366;8.530;2023-03-31T14:07:43;3.17;;;0.97;;
5801;SDS011;2927;49.366;8.530;2023-03-31T14:15:39;5.83;;;1.40;;
5801;SDS011;2927;49.366;8.530;2023-03-31T14:18:14;7.67;;;1.27;;
5801;SDS011;2927;49.366;8.530;2023-03-31T14:21:27;5.73;;;1.50;;
5801;SDS011;2927;49.366;8.530;2023-03-31T14:29:14;7.37;;;2.60;;
5801;SDS011;2927;49.366;8.530;2023-03-31T14:37:25;6.33;;;1.80;;
5801;SDS011;2927;49.366;8.530;2023-03-31T14:39:52;7.20;;;1.43;;
5801;SDS011;2927;49.366;8.530;2023-03-31T14:42:22;9.00;;;1.27;;
5801;SDS011;2927;49.366;8.530;2023-03-31T14:44:54;5.60;;;0.67;;
5801;SDS011;2927;49.366;8.530;2023-03-31T14:47:27;8.23;;;0.67;;
5801;SDS011;2927;49.366;8.530;2023-03-31T14:50:00;3.80;;;0.80;;
5801;SDS011;2927;49.366;8.530;2023-03-31T14:52:29;5.83;;;0.80;;
5801;SDS011;2927;49.366;8.530;2023-03-31T14:54:56;3.03;;;0.60;;
5801;SDS011;2927;49.366;8.530;2023-03-31T14:57:25;8.43;;;0.90;;
5801;SDS011;2927;49.366;8.530;2023-03-31T15:00:02;5.10;;;0.70;;
5801;SDS011;2927;49.366;8.530;2023-03-31T15:02:33;9.63;;;1.13;;
5801;SDS011;2927;49.366;8.530;2023-03-31T15:05:05;3.77;;;0.60;;
5801;SDS011;2927;49.366;8.530;2023-03-31T15:07:33;1.23;;;0.80;;
5801;SDS011;2927;49.366;8.530;2023-03-31T15:10:00;4.80;;;1.07;;
5801;SDS011;2927;49.366;8.530;2023-03-31T15:12:27;7.07;;;0.97;;
5801;SDS011;2927;49.366;8.530;2023-03-31T15:14:57;5.47;;;0.80;;
5801;SDS011;2927;49.366;8.530;2023-03-31T15:17:29;3.60;;;0.93;;
5801;SDS011;2927;49.366;8.530;2023-03-31T15:19:59;4.90;;;0.77;;
5801;SDS011;2927;49.366;8.530;2023-03-31T15:22:45;5.67;;;1.80;;
5801;SDS011;2927;49.366;8.530;2023-03-31T15:25:12;3.37;;;0.90;;
5801;SDS011;2927;49.366;8.530;2023-03-31T15:27:42;9.07;;;1.07;;
5801;SDS011;2927;49.366;8.530;2023-03-31T15:30:15;2.93;;;0.90;;
5801;SDS011;2927;49.366;8.530;2023-03-31T15:32:43;5.90;;;1.20;;
5801;SDS011;2927;49.366;8.530;2023-03-31T15:37:49;5.63;;;1.27;;
5801;SDS011;2927;49.366;8.530;2023-03-31T15:40:22;3.40;;;0.90;;
5801;SDS011;2927;49.366;8.530;2023-03-31T15:42:57;2.83;;;0.80;;
5801;SDS011;2927;49.366;8.530;2023-03-31T15:48:13;6.30;;;1.63;;
5801;SDS011;2927;49.366;8.530;2023-03-31T15:50:58;5.07;;;1.93;;
5801;SDS011;2927;49.366;8.530;2023-03-31T15:53:28;7.00;;;1.20;;
5801;SDS011;2927;49.366;8.530;2023-03-31T15:55:55;11.13;;;2.20;;
5801;SDS011;2927;49.366;8.530;2023-03-31T15:58:24;7.70;;;1.53;;
5801;SDS011;2927;49.366;8.530;2023-03-31T16:01:10;7.27;;;1.20;;
5801;SDS011;2927;49.366;8.530;2023-03-31T16:03:39;3.80;;;1.27;;
5801;SDS011;2927;49.366;8.530;2023-03-31T16:09:06;3.40;;;1.20;;
5801;SDS011;2927;49.366;8.530;2023-03-31T16:14:19;6.80;;;1.60;;
5801;SDS011;2927;49.366;8.530;2023-03-31T16:16:54;3.70;;;1.07;;
5801;SDS011;2927;49.366;8.530;2023-03-31T16:19:24;6.93;;;1.20;;
5801;SDS011;2927;49.366;8.530;2023-03-31T16:21:53;3.63;;;1.50;;
5801;SDS011;2927;49.366;8.530;2023-03-31T16:24:27;5.03;;;0.93;;
5801;SDS011;2927;49.366;8.530;2023-03-31T16:26:58;7.13;;;1.63;;
5801;SDS011;2927;49.366;8.530;2023-03-31T16:29:30;4.30;;;0.90;;
5801;SDS011;2927;49.366;8.530;2023-03-31T16:32:07;2.80;;;1.13;;
5801;SDS011;2927;49.366;8.530;2023-03-31T16:34:41;1.43;;;0.80;;
5801;SDS011;2927;49.366;8.530;2023-03-31T16:37:18;4.97;;;1.00;;
5801;SDS011;2927;49.366;8.530;2023-03-31T16:39:43;5.53;;;1.83;;
5801;SDS011;2927;49.366;8.530;2023-03-31T16:42:09;6.43;;;2.63;;
5801;SDS011;2927;49.366;8.530;2023-03-31T16:44:34;3.87;;;2.30;;
5801;SDS011;2927;49.366;8.530;2023-03-31T16:47:00;7.90;;;2.00;;
5801;SDS011;2927;49.366;8.530;2023-03-31T16:49:25;6.10;;;2.00;;
5801;SDS011;2927;49.366;8.530;2023-03-31T16:51:51;9.33;;;1.27;;
5801;SDS011;2927;49.366;8.530;2023-03-31T16:54:16;4.80;;;2.00;;
5801;SDS011;2927;49.366;8.530;2023-03-31T16:56:42;7.37;;;2.10;;
5801;SDS011;2927;49.366;8.530;2023-03-31T16:59:08;4.67;;;2.33;;
5801;SDS011;2927;49.366;8.530;2023-03-31T17:01:33;10.70;;;6.53;;
5801;SDS011;2927;49.366;8.530;2023-03-31T17:03:59;8.47;;;3.17;;
5801;SDS011;2927;49.366;8.530;2023-03-31T17:06:24;12.03;;;5.77;;
5801;SDS011;2927;49.366;8.530;2023-03-31T17:08:50;1.53;;;0.87;;
5801;SDS011;2927;49.366;8.530;2023-03-31T17:11:16;1.60;;;0.70;;
5801;SDS011;2927;49.366;8.530;2023-03-31T17:18:52;0.70;;;0.70;;
5801;SDS011;2927;49.366;8.530;2023-03-31T17:21:18;3.90;;;0.70;;
5801;SDS011;2927;49.366;8.530;2023-03-31T17:23:44;0.97;;;0.53;;
5801;SDS011;2927;49.366;8.530;2023-03-31T17:26:10;1.30;;;0.87;;
5801;SDS011;2927;49.366;8.530;2023-03-31T17:28:36;3.20;;;0.63;;
5801;SDS011;2927;49.366;8.530;2023-03-31T17:31:09;2.83;;;0.60;;
5801;SDS011;2927;49.366;8.530;2023-03-31T17:33:45;1.03;;;0.40;;
5801;SDS011;2927;49.366;8.530;2023-03-31T17:36:11;1.43;;;0.50;;
5801;SDS011;2927;49.366;8.530;2023-03-31T17:38:37;4.13;;;0.60;;
5801;SDS011;2927;49.366;8.530;2023-03-31T17:41:04;0.70;;;0.60;;
5801;SDS011;2927;49.366;8.530;2023-03-31T17:43:30;1.23;;;0.60;;
5801;SDS011;2927;49.366;8.530;2023-03-31T17:46:03;4.63;;;0.97;;
5801;SDS011;2927;49.366;8.530;2023-03-31T17:48:31;3.67;;;0.80;;
5801;SDS011;2927;49.366;8.530;2023-03-31T17:51:01;1.27;;;0.67;;
5801;SDS011;2927;49.366;8.530;2023-03-31T17:53:31;1.00;;;0.83;;
5801;SDS011;2927;49.366;8.530;2023-03-31T17:55:58;2.40;;;1.37;;
5801;SDS011;2927;49.366;8.530;2023-03-31T17:58:24;1.63;;;1.17;;
5801;SDS011;2927;49.366;8.530;2023-03-31T18:00:50;2.63;;;1.30;;
5801;SDS011;2927;49.366;8.530;2023-03-31T18:03:16;4.87;;;1.37;;
5801;SDS011;2927;49.366;8.530;2023-03-31T18:05:42;8.47;;;0.77;;
5801;SDS011;2927;49.366;8.530;2023-03-31T18:08:09;2.10;;;1.00;;
5801;SDS011;2927;49.366;8.530;2023-03-31T18:10:35;1.20;;;0.73;;
5801;SDS011;2927;49.366;8.530;2023-03-31T18:13:01;5.20;;;1.13;;
5801;SDS011;2927;49.366;8.530;2023-03-31T18:15:27;2.30;;;1.00;;
5801;SDS011;2927;49.366;8.530;2023-03-31T18:17:52;1.13;;;1.00;;
5801;SDS011;2927;49.366;8.530;2023-03-31T18:20:18;1.77;;;1.00;;
5801;SDS011;2927;49.366;8.530;2023-03-31T18:22:44;5.67;;;2.50;;
5801;SDS011;2927;49.366;8.530;2023-03-31T18:25:10;1.70;;;1.03;;